createdAt,value
2023-05-21T00:01:49.937Z,75.90
2023-05-21T00:03:53.342Z,75.90
2023-05-21T00:05:56.302Z,76.10
2023-05-21T00:07:59.119Z,76.50
2023-05-21T00:10:03.211Z,76.70
2023-05-21T00:12:06.668Z,77.00
2023-05-21T00:14:09.476Z,77.10
2023-05-21T00:16:12.279Z,77.20
2023-05-21T00:18:15.069Z,77.30
2023-05-21T00:20:18.003Z,78.20
2023-05-21T00:22:21.113Z,77.40
2023-05-21T00:24:23.897Z,77.70
2023-05-21T00:26:28.038Z,77.70
2023-05-21T00:28:30.814Z,77.80
2023-05-21T00:30:33.628Z,78.00
2023-05-21T00:32:36.802Z,78.00
2023-05-21T00:34:39.691Z,78.10
2023-05-21T00:36:45.488Z,77.90
2023-05-21T00:38:48.401Z,78.10
2023-05-21T00:40:51.514Z,78.20
2023-05-21T00:42:57.265Z,78.20
2023-05-21T00:45:00.600Z,78.20
2023-05-21T00:47:03.722Z,78.00
2023-05-21T00:49:06.816Z,78.00
2023-05-21T00:51:10.037Z,78.10
2023-05-21T00:53:13.448Z,78.30
2023-05-21T00:55:16.271Z,78.40
2023-05-21T00:57:21.538Z,78.40
2023-05-21T00:59:26.093Z,78.60
2023-05-21T01:01:33.738Z,79.10
2023-05-21T01:03:39.183Z,79.10
2023-05-21T01:05:45.131Z,79.20
2023-05-21T01:07:48.332Z,79.50
2023-05-21T01:09:51.158Z,79.60
2023-05-21T01:11:54.832Z,79.60
2023-05-21T01:13:58.844Z,79.70
2023-05-21T01:16:03.793Z,80.10
2023-05-21T01:18:07.698Z,79.80
2023-05-21T01:20:11.862Z,79.80
2023-05-21T01:22:16.090Z,79.80
2023-05-21T01:24:20.325Z,80.00
2023-05-21T01:26:25.885Z,80.00
2023-05-21T01:28:29.700Z,79.70
2023-05-21T01:30:32.576Z,79.90
2023-05-21T01:32:43.303Z,79.80
2023-05-21T01:34:54.543Z,80.00
2023-05-21T01:37:05.492Z,80.00
2023-05-21T01:39:14.916Z,80.20
2023-05-21T01:41:21.068Z,80.10
2023-05-21T01:43:24.474Z,80.10
2023-05-21T01:45:28.960Z,80.10
2023-05-21T01:47:32.893Z,80.20
2023-05-21T01:49:35.991Z,80.30
2023-05-21T01:51:39.588Z,80.20
2023-05-21T01:53:42.652Z,80.20
2023-05-21T01:55:45.952Z,80.10
2023-05-21T01:57:50.081Z,80.30
2023-05-21T01:59:54.743Z,80.20
2023-05-21T02:01:57.619Z,80.30
2023-05-21T02:04:00.544Z,80.30
2023-05-21T02:06:03.702Z,80.40
2023-05-21T02:08:08.371Z,80.30
2023-05-21T02:10:11.961Z,80.40
2023-05-21T02:12:14.740Z,80.50
2023-05-21T02:14:18.804Z,80.60
2023-05-21T02:16:22.369Z,80.70
2023-05-21T02:18:26.361Z,80.60
2023-05-21T02:20:29.146Z,80.70
2023-05-21T02:22:31.915Z,80.70
2023-05-21T02:24:34.698Z,80.70
2023-05-21T02:26:37.502Z,80.80
2023-05-21T02:28:40.443Z,80.80
2023-05-21T02:30:44.557Z,81.20
2023-05-21T02:32:48.816Z,81.10
2023-05-21T02:34:51.836Z,81.10
2023-05-21T02:36:54.674Z,81.50
2023-05-21T02:38:57.768Z,81.60
2023-05-21T02:41:00.587Z,81.70
2023-05-21T02:43:03.335Z,81.80
2023-05-21T02:45:07.008Z,81.70
2023-05-21T02:47:12.598Z,81.80
2023-05-21T02:49:15.426Z,81.90
2023-05-21T02:51:18.193Z,81.90
2023-05-21T02:53:21.006Z,82.20
2023-05-21T02:55:23.915Z,82.20
2023-05-21T02:57:26.667Z,82.20
2023-05-21T02:59:29.462Z,82.30
2023-05-21T03:01:32.408Z,82.30
2023-05-21T03:03:36.646Z,82.50
2023-05-21T03:05:39.470Z,82.60
2023-05-21T03:07:43.588Z,82.80
2023-05-21T03:09:46.981Z,82.80
2023-05-21T03:11:50.055Z,82.80
2023-05-21T03:13:52.789Z,83.00
2023-05-21T03:15:56.547Z,83.00
2023-05-21T03:17:59.367Z,83.30
2023-05-21T03:20:05.812Z,83.40
2023-05-21T03:22:08.621Z,83.50
2023-05-21T03:24:13.707Z,83.50
2023-05-21T03:26:16.600Z,83.60
2023-05-21T03:28:19.445Z,83.70
2023-05-21T03:30:22.275Z,83.70
2023-05-21T03:32:25.215Z,83.60
2023-05-21T03:34:28.075Z,83.50
2023-05-21T03:36:32.150Z,83.50
2023-05-21T03:38:36.514Z,83.50
2023-05-21T03:40:39.947Z,83.50
2023-05-21T03:42:42.784Z,83.60
2023-05-21T03:44:45.956Z,83.60
2023-05-21T03:46:49.107Z,83.70
2023-05-21T03:48:51.918Z,83.90
2023-05-21T03:50:54.721Z,83.90
2023-05-21T03:52:58.850Z,84.00
2023-05-21T03:55:01.673Z,83.90
2023-05-21T03:57:04.619Z,83.90
2023-05-21T03:59:07.387Z,83.90
2023-05-21T04:01:10.720Z,83.90
2023-05-21T04:03:13.662Z,83.90
2023-05-21T04:05:16.540Z,83.80
2023-05-21T04:07:19.394Z,83.70
2023-05-21T04:09:23.534Z,83.70
2023-05-21T04:11:26.332Z,83.80
2023-05-21T04:13:29.258Z,83.80
2023-05-21T04:15:32.465Z,83.80
2023-05-21T04:17:35.565Z,83.90
2023-05-21T04:19:38.676Z,83.90
2023-05-21T04:21:41.940Z,83.90
2023-05-21T04:23:44.740Z,83.80
2023-05-21T04:25:50.790Z,83.70
2023-05-21T04:27:54.800Z,83.70
2023-05-21T04:29:58.020Z,83.50
2023-05-21T04:32:00.794Z,83.60
2023-05-21T04:34:03.633Z,83.40
2023-05-21T04:36:09.869Z,83.10
2023-05-21T04:38:12.635Z,83.20
2023-05-21T04:40:18.181Z,83.00
2023-05-21T04:42:23.966Z,82.70
2023-05-21T04:44:26.831Z,82.70
2023-05-21T04:46:30.998Z,82.20
2023-05-21T04:48:33.800Z,82.30
2023-05-21T04:50:36.690Z,82.40
2023-05-21T04:52:41.153Z,82.20
2023-05-21T04:54:45.799Z,82.10
2023-05-21T04:56:48.564Z,82.00
2023-05-21T04:58:54.100Z,81.80
2023-05-21T05:00:57.818Z,81.90
2023-05-21T05:03:01.120Z,81.70
2023-05-21T05:05:04.762Z,81.70
2023-05-21T05:07:07.552Z,81.60
2023-05-21T05:09:10.853Z,81.60
2023-05-21T05:11:13.709Z,81.30
2023-05-21T05:13:16.590Z,81.30
2023-05-21T05:15:20.828Z,81.40
2023-05-21T05:17:24.649Z,81.30
2023-05-21T05:19:27.634Z,81.10
2023-05-21T05:21:30.610Z,80.70
2023-05-21T05:23:33.503Z,80.80
2023-05-21T05:25:36.422Z,80.90
2023-05-21T05:27:39.409Z,80.70
2023-05-21T05:29:42.144Z,80.90
2023-05-21T05:31:46.337Z,80.80
2023-05-21T05:33:49.498Z,80.50
2023-05-21T05:35:52.278Z,80.40
2023-05-21T05:37:55.019Z,80.40
2023-05-21T05:39:57.792Z,80.40
2023-05-21T05:42:00.590Z,80.30
2023-05-21T05:44:03.406Z,79.50
2023-05-21T05:46:06.351Z,79.70
2023-05-21T05:48:10.579Z,79.70
2023-05-21T05:50:13.662Z,79.60
2023-05-21T05:52:16.483Z,79.30
2023-05-21T05:54:19.425Z,79.10
2023-05-21T05:56:22.237Z,78.90
2023-05-21T05:58:24.966Z,78.90
2023-05-21T06:00:27.731Z,78.00
2023-05-21T06:02:30.560Z,78.60
2023-05-21T06:04:34.805Z,78.40
2023-05-21T06:06:37.737Z,78.70
2023-05-21T06:08:40.496Z,78.60
2023-05-21T06:10:43.369Z,78.30
2023-05-21T06:12:46.145Z,78.80
2023-05-21T06:14:49.111Z,78.40
2023-05-21T06:16:51.878Z,78.20
2023-05-21T06:18:54.755Z,78.40
2023-05-21T06:20:58.901Z,78.00
2023-05-21T06:23:01.883Z,77.60
2023-05-21T06:25:05.024Z,77.70
2023-05-21T06:27:07.752Z,77.50
2023-05-21T06:29:10.544Z,77.40
2023-05-21T06:31:13.630Z,77.30
2023-05-21T06:33:16.609Z,76.40
2023-05-21T06:35:19.623Z,76.40
2023-05-21T06:37:25.922Z,76.00
2023-05-21T06:39:29.387Z,76.30
2023-05-21T06:41:32.169Z,76.20
2023-05-21T06:43:35.026Z,76.20
2023-05-21T06:45:37.956Z,76.00
2023-05-21T06:47:41.091Z,76.00
2023-05-21T06:49:43.884Z,75.70
2023-05-21T06:51:46.681Z,75.90
2023-05-21T06:53:50.979Z,75.70
2023-05-21T06:55:53.929Z,75.10
2023-05-21T06:57:58.570Z,75.10
2023-05-21T07:00:01.568Z,75.00
2023-05-21T07:02:04.777Z,74.50
2023-05-21T07:04:07.590Z,74.20
2023-05-21T07:06:10.404Z,74.00
2023-05-21T07:08:13.232Z,74.20
2023-05-21T07:10:17.486Z,74.60
2023-05-21T07:12:20.289Z,73.70
2023-05-21T07:14:23.023Z,73.70
2023-05-21T07:16:25.803Z,73.10
2023-05-21T07:18:28.746Z,73.00
2023-05-21T07:20:31.508Z,73.20
2023-05-21T07:22:34.316Z,73.50
2023-05-21T07:24:37.146Z,72.50
2023-05-21T07:26:41.382Z,73.00
2023-05-21T07:28:44.146Z,71.60
2023-05-21T07:30:47.138Z,71.10
2023-05-21T07:32:49.982Z,71.20
2023-05-21T07:34:54.291Z,71.50
2023-05-21T07:36:57.254Z,71.10
2023-05-21T07:39:00.014Z,71.30
2023-05-21T07:41:02.778Z,71.00
2023-05-21T07:43:06.827Z,70.30
2023-05-21T07:45:10.316Z,70.90
2023-05-21T07:47:13.064Z,70.80
2023-05-21T07:49:17.069Z,70.50
2023-05-21T07:51:20.050Z,70.30
2023-05-21T07:53:22.905Z,70.40
2023-05-21T07:55:25.664Z,70.10
2023-05-21T07:57:28.472Z,69.80
2023-05-21T07:59:33.638Z,68.80
2023-05-21T08:01:37.378Z,69.20
2023-05-21T08:03:40.446Z,69.10
2023-05-21T08:05:44.838Z,68.70
2023-05-21T08:07:47.693Z,68.10
2023-05-21T08:09:51.580Z,68.50
2023-05-21T08:11:54.412Z,68.10
2023-05-21T08:13:57.266Z,67.70
2023-05-21T08:16:01.626Z,68.00
2023-05-21T08:18:05.478Z,67.20
2023-05-21T08:20:09.342Z,67.10
2023-05-21T08:22:12.135Z,66.90
2023-05-21T08:24:14.916Z,67.70
2023-05-21T08:26:17.862Z,67.30
2023-05-21T08:28:23.167Z,66.90
2023-05-21T08:30:26.011Z,66.70
2023-05-21T08:32:30.190Z,67.00
2023-05-21T08:34:33.140Z,66.70
2023-05-21T08:36:36.058Z,66.90
2023-05-21T08:38:38.812Z,67.00
2023-05-21T08:40:42.153Z,66.40
2023-05-21T08:42:46.656Z,66.80
2023-05-21T08:44:53.705Z,66.30
2023-05-21T08:46:58.610Z,66.70
2023-05-21T08:49:04.625Z,66.20
2023-05-21T08:51:07.564Z,66.00
2023-05-21T08:53:19.910Z,66.20
2023-05-21T08:55:30.173Z,66.60
2023-05-21T08:57:33.478Z,66.50
2023-05-21T08:59:37.280Z,66.10
2023-05-21T09:01:42.279Z,66.00
2023-05-21T09:03:45.412Z,65.70
2023-05-21T09:05:51.175Z,66.30
2023-05-21T09:08:04.238Z,66.10
2023-05-21T09:10:10.049Z,65.70
2023-05-21T09:12:12.868Z,65.30
2023-05-21T09:14:16.190Z,65.40
2023-05-21T09:16:19.537Z,64.80
2023-05-21T09:18:22.376Z,64.80
2023-05-21T09:20:26.813Z,64.10
2023-05-21T09:22:31.335Z,64.40
2023-05-21T09:24:36.290Z,64.00
2023-05-21T09:26:41.950Z,63.40
2023-05-21T09:28:44.791Z,63.70
2023-05-21T09:30:47.976Z,62.70
2023-05-21T09:32:54.611Z,61.90
2023-05-21T09:34:57.448Z,62.30
2023-05-21T09:37:01.578Z,62.20
2023-05-21T09:39:06.476Z,62.70
2023-05-21T09:41:09.338Z,62.90
2023-05-21T09:43:15.105Z,62.60
2023-05-21T09:45:22.292Z,63.10
2023-05-21T09:47:25.088Z,62.50
2023-05-21T09:49:28.486Z,61.70
2023-05-21T09:51:32.075Z,62.40
2023-05-21T09:53:34.959Z,61.50
2023-05-21T09:55:39.161Z,61.50
2023-05-21T09:57:43.364Z,61.80
2023-05-21T09:59:46.279Z,62.10
2023-05-21T10:01:51.573Z,61.40
2023-05-21T10:03:57.720Z,61.40
2023-05-21T10:06:01.609Z,62.10
2023-05-21T10:08:05.970Z,61.40
2023-05-21T10:10:12.774Z,61.20
2023-05-21T10:12:19.905Z,59.40
2023-05-21T10:14:26.357Z,60.00
2023-05-21T10:16:30.711Z,60.60
2023-05-21T10:18:34.748Z,60.00
2023-05-21T10:20:38.823Z,60.80
2023-05-21T10:22:42.329Z,60.90
2023-05-21T10:24:45.984Z,60.30
2023-05-21T10:26:49.827Z,60.30
2023-05-21T10:28:55.971Z,60.00
2023-05-21T10:30:59.090Z,59.00
2023-05-21T10:33:03.736Z,59.10
2023-05-21T10:35:08.314Z,58.70
2023-05-21T10:37:13.542Z,58.70
2023-05-21T10:39:19.837Z,58.80
2023-05-21T10:41:24.048Z,58.50
2023-05-21T10:43:39.861Z,59.10
2023-05-21T10:46:05.156Z,58.30
2023-05-21T10:48:23.071Z,58.10
2023-05-21T10:50:47.620Z,57.10
2023-05-21T10:53:09.930Z,56.70
2023-05-21T10:55:24.305Z,56.90
2023-05-21T10:57:47.666Z,56.60
2023-05-21T10:59:51.348Z,57.20
2023-05-21T11:01:56.942Z,56.80
2023-05-21T11:03:59.839Z,57.10
2023-05-21T11:06:05.318Z,55.50
2023-05-21T11:08:21.880Z,55.50
2023-05-21T11:10:39.363Z,56.30
2023-05-21T11:13:06.861Z,56.80
2023-05-21T11:15:10.285Z,57.90
2023-05-21T11:17:17.176Z,57.00
2023-05-21T11:19:20.588Z,56.70
2023-05-21T11:21:26.197Z,56.30
2023-05-21T11:23:49.823Z,56.60
2023-05-21T11:26:04.525Z,56.30
2023-05-21T11:28:09.420Z,55.70
2023-05-21T11:30:17.172Z,55.40
2023-05-21T11:32:21.301Z,55.80
2023-05-21T11:34:28.636Z,54.90
2023-05-21T11:36:31.942Z,55.20
2023-05-21T11:38:35.335Z,55.50
2023-05-21T11:40:38.740Z,54.80
2023-05-21T11:42:42.479Z,54.60
2023-05-21T11:44:46.322Z,53.90
2023-05-21T11:46:49.845Z,53.90
2023-05-21T11:48:54.365Z,54.10
2023-05-21T11:50:57.485Z,53.80
2023-05-21T11:53:00.883Z,53.40
2023-05-21T11:55:03.672Z,53.00
2023-05-21T11:57:08.429Z,52.60
2023-05-21T11:59:19.070Z,52.90
2023-05-21T12:01:25.138Z,53.50
2023-05-21T12:03:30.452Z,52.80
2023-05-21T12:05:46.157Z,53.30
2023-05-21T12:07:50.455Z,52.40
2023-05-21T12:09:53.698Z,51.80
2023-05-21T12:11:56.522Z,51.20
2023-05-21T12:13:59.408Z,51.70
2023-05-21T12:16:05.965Z,51.60
2023-05-21T12:18:09.850Z,52.10
2023-05-21T12:20:16.552Z,51.30
2023-05-21T12:22:21.412Z,50.70
2023-05-21T12:24:24.395Z,51.50
2023-05-21T12:26:27.622Z,51.30
2023-05-21T12:28:30.725Z,51.30
2023-05-21T12:30:33.723Z,51.30
2023-05-21T12:32:38.189Z,51.30
2023-05-21T12:34:46.134Z,51.50
2023-05-21T12:36:51.009Z,50.90
2023-05-21T12:38:56.248Z,50.40
2023-05-21T12:41:04.932Z,50.70
2023-05-21T12:43:07.892Z,51.10
2023-05-21T12:45:12.015Z,50.70
2023-05-21T12:47:15.296Z,50.50
2023-05-21T12:49:32.165Z,50.30
2023-05-21T12:51:41.056Z,50.20
2023-05-21T12:53:44.788Z,50.00
2023-05-21T12:55:49.060Z,50.00
2023-05-21T12:57:52.165Z,49.90
2023-05-21T12:59:57.361Z,49.00
2023-05-21T13:02:01.702Z,48.80
2023-05-21T13:04:07.747Z,49.00
2023-05-21T13:06:10.768Z,49.20
2023-05-21T13:08:15.517Z,49.00
2023-05-21T13:10:18.794Z,48.00
2023-05-21T13:12:24.734Z,48.10
2023-05-21T13:14:27.505Z,48.30
2023-05-21T13:16:30.279Z,48.50
2023-05-21T13:18:33.138Z,48.00
2023-05-21T13:20:36.380Z,48.50
2023-05-21T13:22:42.414Z,48.50
2023-05-21T13:24:45.384Z,48.80
2023-05-21T13:26:48.204Z,48.80
2023-05-21T13:28:52.309Z,48.80
2023-05-21T13:30:56.038Z,48.60
2023-05-21T13:32:58.904Z,48.20
2023-05-21T13:35:01.742Z,48.20
2023-05-21T13:37:04.492Z,47.80
2023-05-21T13:39:07.621Z,48.50
2023-05-21T13:41:10.374Z,48.70
2023-05-21T13:43:13.239Z,48.60
2023-05-21T13:45:19.366Z,47.50
2023-05-21T13:47:22.280Z,48.00
2023-05-21T13:49:25.174Z,47.60
2023-05-21T13:51:38.738Z,48.30
2023-05-21T13:53:42.343Z,49.00
2023-05-21T13:55:45.096Z,49.50
2023-05-21T13:57:47.923Z,48.30
2023-05-21T13:59:50.985Z,48.40
2023-05-21T14:01:55.364Z,48.00
2023-05-21T14:03:58.295Z,48.00
2023-05-21T14:06:01.121Z,47.50
2023-05-21T14:08:04.194Z,47.00
2023-05-21T14:10:07.984Z,46.80
2023-05-21T14:12:10.963Z,46.40
2023-05-21T14:14:18.767Z,46.70
2023-05-21T14:16:23.056Z,46.50
2023-05-21T14:18:27.214Z,46.40
2023-05-21T14:20:30.097Z,46.50
2023-05-21T14:22:32.808Z,46.20
2023-05-21T14:24:35.654Z,46.80
2023-05-21T14:26:41.022Z,47.20
2023-05-21T14:28:44.641Z,46.70
2023-05-21T14:30:47.400Z,46.60
2023-05-21T14:32:50.240Z,45.20
2023-05-21T14:34:54.406Z,43.70
2023-05-21T14:36:57.138Z,44.30
2023-05-21T14:39:00.170Z,44.20
2023-05-21T14:41:02.986Z,42.60
2023-05-21T14:43:06.439Z,41.80
2023-05-21T14:45:18.824Z,40.40
2023-05-21T14:47:22.367Z,39.40
2023-05-21T14:49:25.237Z,38.10
2023-05-21T14:51:29.304Z,38.20
2023-05-21T14:53:32.297Z,37.20
2023-05-21T14:55:37.070Z,35.90
2023-05-21T14:57:40.328Z,34.40
2023-05-21T14:59:43.131Z,33.90
2023-05-21T15:01:46.086Z,34.20
2023-05-21T15:03:49.042Z,34.60
2023-05-21T15:05:51.970Z,34.30
2023-05-21T15:07:56.212Z,34.30
2023-05-21T15:09:58.901Z,33.40
2023-05-21T15:12:01.633Z,33.40
2023-05-21T15:14:04.405Z,33.10
2023-05-21T15:16:07.493Z,34.00
2023-05-21T15:18:11.214Z,35.50
2023-05-21T15:20:14.332Z,34.20
2023-05-21T15:22:17.199Z,35.70
2023-05-21T15:24:21.303Z,35.20
2023-05-21T15:26:25.697Z,34.30
2023-05-21T15:28:28.536Z,32.60
2023-05-21T15:30:31.363Z,31.60
2023-05-21T15:32:34.132Z,30.50
2023-05-21T15:34:36.964Z,30.70
2023-05-21T15:36:39.785Z,31.20
2023-05-21T15:38:42.552Z,31.50
2023-05-21T15:40:46.652Z,33.40
2023-05-21T15:42:49.391Z,35.50
2023-05-21T15:44:52.118Z,35.80
2023-05-21T15:49:12.385Z,34.70
2023-05-21T15:51:15.152Z,34.80
2023-05-21T15:53:17.982Z,35.40
2023-05-21T15:55:21.139Z,36.40
2023-05-21T15:57:25.239Z,36.50
2023-05-21T15:59:28.882Z,36.30
2023-05-21T16:01:31.763Z,36.40
2023-05-21T16:03:34.626Z,36.20
2023-05-21T16:05:37.665Z,35.80
2023-05-21T16:07:40.662Z,35.00
2023-05-21T16:09:43.409Z,33.40
2023-05-21T16:11:46.211Z,32.70
2023-05-21T16:13:50.310Z,33.10
2023-05-21T16:15:53.083Z,33.60
2023-05-21T16:17:55.856Z,34.60
2023-05-21T16:19:58.661Z,35.30
2023-05-21T16:22:01.955Z,35.40
2023-05-21T16:24:05.130Z,34.60
2023-05-21T16:26:08.270Z,34.10
2023-05-21T16:28:12.210Z,33.10
2023-05-21T16:30:16.466Z,34.10
2023-05-21T16:32:19.401Z,34.50
2023-05-21T16:34:22.182Z,33.60
2023-05-21T16:36:24.940Z,33.30
2023-05-21T16:38:27.688Z,32.30
2023-05-21T16:40:31.431Z,31.40
2023-05-21T16:42:34.234Z,31.50
2023-05-21T16:44:37.875Z,31.30
2023-05-21T16:46:42.043Z,30.30
2023-05-21T16:48:44.852Z,30.00
2023-05-21T16:50:47.788Z,29.90
2023-05-21T16:52:50.523Z,30.80
2023-05-21T16:54:53.347Z,30.90
2023-05-21T16:56:56.175Z,30.70
2023-05-21T16:58:58.923Z,31.30
2023-05-21T17:01:01.853Z,31.70
2023-05-21T17:03:06.148Z,32.10
2023-05-21T17:05:09.449Z,33.10
2023-05-21T17:07:12.199Z,33.40
2023-05-21T17:09:18.732Z,33.60
2023-05-21T17:11:21.771Z,34.10
2023-05-21T17:13:24.537Z,35.10
2023-05-21T17:15:27.543Z,35.70
2023-05-21T17:17:30.407Z,36.60
2023-05-21T17:19:35.052Z,37.40
2023-05-21T17:21:37.915Z,38.00
2023-05-21T17:23:42.839Z,38.30
2023-05-21T17:25:45.652Z,38.80
2023-05-21T17:27:48.437Z,38.90
2023-05-21T17:29:51.186Z,39.80
2023-05-21T17:31:54.024Z,39.20
2023-05-21T17:33:57.125Z,39.60
2023-05-21T17:36:02.019Z,39.80
2023-05-21T17:38:04.940Z,39.70
2023-05-21T17:40:09.223Z,39.20
2023-05-21T17:42:12.240Z,38.70
2023-05-21T17:44:16.741Z,38.80
2023-05-21T17:46:19.528Z,38.70
2023-05-21T17:48:22.364Z,37.90
2023-05-21T17:50:25.161Z,37.40
2023-05-21T17:52:29.234Z,37.80
2023-05-21T17:54:32.194Z,37.70
2023-05-21T17:56:38.939Z,38.20
2023-05-21T17:58:41.664Z,38.90
2023-05-21T18:00:44.536Z,39.30
2023-05-21T18:02:47.359Z,40.20
2023-05-21T18:04:50.161Z,41.00
2023-05-21T18:06:52.934Z,41.30
2023-05-21T18:08:57.069Z,42.10
2023-05-21T18:11:01.582Z,42.50
2023-05-21T18:13:04.480Z,42.90
2023-05-21T18:15:08.411Z,43.20
2023-05-21T18:17:11.232Z,43.60
2023-05-21T18:19:14.142Z,44.00
2023-05-21T18:21:17.045Z,44.40
2023-05-21T18:23:19.804Z,44.70
2023-05-21T18:25:23.933Z,45.00
2023-05-21T18:27:26.865Z,45.50
2023-05-21T18:29:29.646Z,45.60
2023-05-21T18:31:32.507Z,46.10
2023-05-21T18:33:35.626Z,46.50
2023-05-21T18:35:38.453Z,46.80
2023-05-21T18:37:42.889Z,47.00
2023-05-21T18:39:45.741Z,47.30
2023-05-21T18:41:51.687Z,47.90
2023-05-21T18:43:56.418Z,48.40
2023-05-21T18:45:59.277Z,48.60
2023-05-21T18:48:03.133Z,49.00
2023-05-21T18:50:07.274Z,49.40
2023-05-21T18:52:10.065Z,49.40
2023-05-21T18:54:12.790Z,49.60
2023-05-21T18:56:15.627Z,49.90
2023-05-21T18:58:19.860Z,49.90
2023-05-21T19:00:22.835Z,50.40
2023-05-21T19:02:26.396Z,50.70
2023-05-21T19:04:29.141Z,50.80
2023-05-21T19:06:31.991Z,51.00
2023-05-21T19:08:34.829Z,51.20
2023-05-21T19:10:39.286Z,51.40
2023-05-21T19:12:43.421Z,51.70
2023-05-21T19:14:47.558Z,52.00
2023-05-21T19:16:50.769Z,52.20
2023-05-21T19:18:53.582Z,52.30
2023-05-21T19:20:56.606Z,52.60
2023-05-21T19:23:01.631Z,52.60
2023-05-21T19:25:04.497Z,52.80
2023-05-21T19:27:07.514Z,52.90
2023-05-21T19:29:10.946Z,53.10
2023-05-21T19:31:15.093Z,53.20
2023-05-21T19:33:18.113Z,53.60
2023-05-21T19:35:24.927Z,53.50
2023-05-21T19:37:30.036Z,53.90
2023-05-21T19:39:41.758Z,54.00
2023-05-21T19:41:45.079Z,54.10
2023-05-21T19:43:47.925Z,54.20
2023-05-21T19:45:50.761Z,54.60
2023-05-21T19:47:55.004Z,54.80
2023-05-21T19:49:57.796Z,54.90
2023-05-21T19:52:01.988Z,54.80
2023-05-21T19:54:04.821Z,55.10
2023-05-21T19:56:08.042Z,55.00
2023-05-21T19:58:13.351Z,55.10
2023-05-21T20:00:17.229Z,55.50
2023-05-21T20:02:19.960Z,55.30
2023-05-21T20:04:24.087Z,55.50
2023-05-21T20:06:26.915Z,55.60
2023-05-21T20:08:29.702Z,55.80
2023-05-21T20:10:32.404Z,55.70
2023-05-21T20:12:35.629Z,55.80
2023-05-21T20:14:38.439Z,55.90
2023-05-21T20:16:42.293Z,56.20
2023-05-21T20:18:46.920Z,56.30
2023-05-21T20:20:51.009Z,56.50
2023-05-21T20:22:56.095Z,56.60
2023-05-21T20:24:58.864Z,56.40
2023-05-21T20:27:02.378Z,56.50
2023-05-21T20:29:06.412Z,56.40
2023-05-21T20:31:09.341Z,56.60
2023-05-21T20:33:13.564Z,56.60
2023-05-21T20:35:16.390Z,56.70
2023-05-21T20:37:21.620Z,56.70
2023-05-21T20:39:24.617Z,56.70
2023-05-21T20:41:28.255Z,56.60
2023-05-21T20:43:31.223Z,56.60
2023-05-21T20:45:35.626Z,56.80
2023-05-21T20:47:38.493Z,56.70
2023-05-21T20:49:41.276Z,56.80
2023-05-21T20:51:44.109Z,56.70
2023-05-21T20:53:48.555Z,56.70
2023-05-21T20:55:52.676Z,56.80
2023-05-21T20:57:56.074Z,56.90
2023-05-21T20:59:58.867Z,56.90
2023-05-21T21:02:01.878Z,56.80
2023-05-21T21:04:05.188Z,56.90
2023-05-21T21:06:09.757Z,56.90
2023-05-21T21:08:12.528Z,56.90
2023-05-21T21:10:16.759Z,56.90
2023-05-21T21:12:25.356Z,57.00
2023-05-21T21:14:30.776Z,56.80
2023-05-21T21:16:34.786Z,56.90
2023-05-21T21:18:37.591Z,57.00
2023-05-21T21:20:41.218Z,56.90
2023-05-21T21:22:44.430Z,57.10
2023-05-21T21:24:48.161Z,57.20
2023-05-21T21:26:52.238Z,57.10
2023-05-21T21:28:56.283Z,57.20
2023-05-21T21:30:59.270Z,57.20
2023-05-21T21:33:02.169Z,57.30
2023-05-21T21:35:05.946Z,57.40
2023-05-21T21:37:08.723Z,57.30
2023-05-21T21:39:11.516Z,57.30
2023-05-21T21:41:14.260Z,57.40
2023-05-21T21:43:18.555Z,57.50
2023-05-21T21:45:21.349Z,57.50
2023-05-21T21:47:24.171Z,57.60
2023-05-21T21:49:26.949Z,57.70
2023-05-21T21:51:29.786Z,57.80
2023-05-21T21:53:32.555Z,58.00
2023-05-21T21:55:35.331Z,58.10
2023-05-21T21:57:39.401Z,58.40
2023-05-21T21:59:43.513Z,58.50
2023-05-21T22:01:46.464Z,58.50
2023-05-21T22:03:49.303Z,58.60
2023-05-21T22:05:52.333Z,58.60
2023-05-21T22:07:55.123Z,58.70
2023-05-21T22:09:57.849Z,58.70
2023-05-21T22:12:00.634Z,58.70
2023-05-21T22:14:04.387Z,58.90
2023-05-21T22:16:08.906Z,59.00
2023-05-21T22:18:12.066Z,59.00
2023-05-21T22:20:15.124Z,59.30
2023-05-21T22:22:18.005Z,59.30
2023-05-21T22:24:31.377Z,59.50
2023-05-21T22:26:35.486Z,59.60
2023-05-21T22:28:38.319Z,59.80
2023-05-21T22:30:41.351Z,59.80
2023-05-21T22:32:45.634Z,59.80
2023-05-21T22:34:48.429Z,59.90
2023-05-21T22:36:51.296Z,60.00
2023-05-21T22:38:54.246Z,60.00
2023-05-21T22:40:57.075Z,60.00
2023-05-21T22:43:00.152Z,60.00
2023-05-21T22:45:03.137Z,60.10
2023-05-21T22:47:06.466Z,60.20
2023-05-21T22:49:10.685Z,60.30
2023-05-21T22:51:14.111Z,60.30
2023-05-21T22:53:17.607Z,60.30
2023-05-21T22:55:20.618Z,60.30
2023-05-21T22:57:23.397Z,60.30
2023-05-21T22:59:26.440Z,60.50
2023-05-21T23:01:29.334Z,60.70
2023-05-21T23:03:32.192Z,60.70
2023-05-21T23:05:36.285Z,60.80
2023-05-21T23:07:39.036Z,61.10
2023-05-21T23:09:41.864Z,61.10
2023-05-21T23:11:45.481Z,61.20
2023-05-21T23:13:48.341Z,61.20
2023-05-21T23:15:51.440Z,61.30
2023-05-21T23:17:54.246Z,61.40
2023-05-21T23:19:57.617Z,61.50
2023-05-21T23:22:01.740Z,61.70
2023-05-21T23:24:04.740Z,61.70
2023-05-21T23:26:07.544Z,61.80
2023-05-21T23:28:10.331Z,61.90
2023-05-21T23:30:13.383Z,61.90
2023-05-21T23:32:16.247Z,62.10
2023-05-21T23:34:19.057Z,62.20
2023-05-21T23:36:22.067Z,62.30
2023-05-21T23:38:26.344Z,62.40
2023-05-21T23:40:29.092Z,62.40
2023-05-21T23:42:31.963Z,62.60
2023-05-21T23:44:34.782Z,62.60
2023-05-21T23:46:37.579Z,62.80
2023-05-21T23:48:40.535Z,62.90
2023-05-21T23:50:43.397Z,62.90
2023-05-21T23:52:46.537Z,63.00
2023-05-21T23:54:50.890Z,63.20
2023-05-21T23:56:53.712Z,63.30
2023-05-21T23:58:56.475Z,63.70
